sensor_id;sensor_type;location;lat;lon;timestamp;P1;durP1;ratioP1;P2;durP2;ratioP2
72194;SDS011;60095;50.180;9.032;2022-09-12T00:01:36;8.55;;;6.93;;
72194;SDS011;60095;50.180;9.032;2022-09-12T00:04:03;6.32;;;5.70;;
72194;SDS011;60095;50.180;9.032;2022-09-12T00:06:30;6.25;;;5.10;;
72194;SDS011;60095;50.180;9.032;2022-09-12T00:08:57;7.57;;;6.85;;
72194;SDS011;60095;50.180;9.032;2022-09-12T00:11:24;8.20;;;6.57;;
72194;SDS011;60095;50.180;9.032;2022-09-12T00:13:51;7.53;;;6.80;;
72194;SDS011;60095;50.180;9.032;2022-09-12T00:16:21;7.18;;;6.57;;
72194;SDS011;60095;50.180;9.032;2022-09-12T00:18:47;8.02;;;7.22;;
72194;SDS011;60095;50.180;9.032;2022-09-12T00:21:15;8.00;;;6.32;;
72194;SDS011;60095;50.180;9.032;2022-09-12T00:23:42;18.55;;;5.30;;
72194;SDS011;60095;50.180;9.032;2022-09-12T00:26:09;6.32;;;5.70;;
72194;SDS011;60095;50.180;9.032;2022-09-12T00:28:35;5.95;;;5.35;;
72194;SDS011;60095;50.180;9.032;2022-09-12T00:31:03;7.65;;;5.55;;
72194;SDS011;60095;50.180;9.032;2022-09-12T00:33:29;9.25;;;7.00;;
72194;SDS011;60095;50.180;9.032;2022-09-12T00:35:56;6.03;;;5.43;;
72194;SDS011;60095;50.180;9.032;2022-09-12T00:38:23;6.10;;;5.55;;
72194;SDS011;60095;50.180;9.032;2022-09-12T00:40:50;6.60;;;6.00;;
72194;SDS011;60095;50.180;9.032;2022-09-12T00:43:32;6.63;;;6.00;;
72194;SDS011;60095;50.180;9.032;2022-09-12T00:45:59;8.50;;;5.50;;
72194;SDS011;60095;50.180;9.032;2022-09-12T00:48:28;7.20;;;6.50;;
72194;SDS011;60095;50.180;9.032;2022-09-12T00:50:56;7.00;;;5.60;;
72194;SDS011;60095;50.180;9.032;2022-09-12T00:53:24;5.63;;;5.07;;
72194;SDS011;60095;50.180;9.032;2022-09-12T00:55:51;8.55;;;6.55;;
72194;SDS011;60095;50.180;9.032;2022-09-12T00:58:18;9.75;;;6.03;;
72194;SDS011;60095;50.180;9.032;2022-09-12T01:00:47;6.85;;;6.15;;
72194;SDS011;60095;50.180;9.032;2022-09-12T01:03:15;7.25;;;5.70;;
72194;SDS011;60095;50.180;9.032;2022-09-12T01:05:43;7.72;;;6.18;;
72194;SDS011;60095;50.180;9.032;2022-09-12T01:08:11;5.68;;;5.18;;
72194;SDS011;60095;50.180;9.032;2022-09-12T01:10:39;6.78;;;6.18;;
72194;SDS011;60095;50.180;9.032;2022-09-12T01:13:07;7.07;;;6.45;;
72194;SDS011;60095;50.180;9.032;2022-09-12T01:15:35;6.60;;;5.75;;
72194;SDS011;60095;50.180;9.032;2022-09-12T01:18:06;8.23;;;6.82;;
72194;SDS011;60095;50.180;9.032;2022-09-12T01:20:40;5.82;;;5.07;;
72194;SDS011;60095;50.180;9.032;2022-09-12T01:23:23;8.05;;;7.00;;
72194;SDS011;60095;50.180;9.032;2022-09-12T01:26:08;8.20;;;7.20;;
72194;SDS011;60095;50.180;9.032;2022-09-12T01:28:46;7.57;;;6.10;;
72194;SDS011;60095;50.180;9.032;2022-09-12T01:31:21;18.45;;;5.75;;
72194;SDS011;60095;50.180;9.032;2022-09-12T01:33:54;5.70;;;5.25;;
72194;SDS011;60095;50.180;9.032;2022-09-12T01:36:33;5.38;;;4.88;;
72194;SDS011;60095;50.180;9.032;2022-09-12T01:39:02;6.78;;;5.50;;
72194;SDS011;60095;50.180;9.032;2022-09-12T01:41:31;6.65;;;5.70;;
72194;SDS011;60095;50.180;9.032;2022-09-12T01:44:03;6.55;;;5.95;;
72194;SDS011;60095;50.180;9.032;2022-09-12T01:46:36;8.38;;;6.43;;
72194;SDS011;60095;50.180;9.032;2022-09-12T01:49:06;7.00;;;4.50;;
72194;SDS011;60095;50.180;9.032;2022-09-12T01:51:36;9.88;;;7.25;;
72194;SDS011;60095;50.180;9.032;2022-09-12T01:54:04;9.63;;;5.30;;
72194;SDS011;60095;50.180;9.032;2022-09-12T01:56:32;8.13;;;4.78;;
72194;SDS011;60095;50.180;9.032;2022-09-12T01:59:00;7.80;;;6.78;;
72194;SDS011;60095;50.180;9.032;2022-09-12T02:01:30;8.35;;;6.43;;
72194;SDS011;60095;50.180;9.032;2022-09-12T02:04:01;5.70;;;5.20;;
72194;SDS011;60095;50.180;9.032;2022-09-12T02:06:30;6.90;;;5.78;;
72194;SDS011;60095;50.180;9.032;2022-09-12T02:08:58;6.80;;;5.18;;
72194;SDS011;60095;50.180;9.032;2022-09-12T02:11:26;7.40;;;5.03;;
72194;SDS011;60095;50.180;9.032;2022-09-12T02:13:55;5.00;;;4.50;;
72194;SDS011;60095;50.180;9.032;2022-09-12T02:16:26;12.57;;;6.88;;
72194;SDS011;60095;50.180;9.032;2022-09-12T02:18:54;7.68;;;6.20;;
72194;SDS011;60095;50.180;9.032;2022-09-12T02:21:23;4.95;;;4.35;;
72194;SDS011;60095;50.180;9.032;2022-09-12T02:23:52;7.75;;;5.35;;
72194;SDS011;60095;50.180;9.032;2022-09-12T02:26:22;7.35;;;5.47;;
72194;SDS011;60095;50.180;9.032;2022-09-12T02:28:49;4.75;;;4.05;;
72194;SDS011;60095;50.180;9.032;2022-09-12T02:31:18;7.95;;;7.18;;
72194;SDS011;60095;50.180;9.032;2022-09-12T02:33:47;7.97;;;4.32;;
72194;SDS011;60095;50.180;9.032;2022-09-12T02:36:16;5.88;;;4.55;;
72194;SDS011;60095;50.180;9.032;2022-09-12T02:38:49;6.17;;;5.37;;
72194;SDS011;60095;50.180;9.032;2022-09-12T02:41:17;6.05;;;5.18;;
72194;SDS011;60095;50.180;9.032;2022-09-12T02:43:43;5.70;;;4.30;;
72194;SDS011;60095;50.180;9.032;2022-09-12T02:46:12;5.75;;;5.13;;
72194;SDS011;60095;50.180;9.032;2022-09-12T02:48:40;6.55;;;5.85;;
72194;SDS011;60095;50.180;9.032;2022-09-12T02:51:08;9.77;;;5.47;;
72194;SDS011;60095;50.180;9.032;2022-09-12T02:53:35;6.03;;;5.10;;
72194;SDS011;60095;50.180;9.032;2022-09-12T02:56:03;6.95;;;6.25;;
72194;SDS011;60095;50.180;9.032;2022-09-12T02:58:31;6.50;;;4.57;;
72194;SDS011;60095;50.180;9.032;2022-09-12T03:00:59;7.13;;;6.43;;
72194;SDS011;60095;50.180;9.032;2022-09-12T03:06:15;4.43;;;4.03;;
72194;SDS011;60095;50.180;9.032;2022-09-12T03:08:49;4.97;;;4.50;;
72194;SDS011;60095;50.180;9.032;2022-09-12T03:11:30;5.57;;;5.05;;
72194;SDS011;60095;50.180;9.032;2022-09-12T03:14:02;8.10;;;5.55;;
72194;SDS011;60095;50.180;9.032;2022-09-12T03:16:32;6.00;;;5.47;;
72194;SDS011;60095;50.180;9.032;2022-09-12T03:19:02;5.70;;;4.03;;
72194;SDS011;60095;50.180;9.032;2022-09-12T03:21:32;5.07;;;4.57;;
72194;SDS011;60095;50.180;9.032;2022-09-12T03:24:01;4.05;;;3.65;;
72194;SDS011;60095;50.180;9.032;2022-09-12T03:26:33;8.15;;;5.35;;
72194;SDS011;60095;50.180;9.032;2022-09-12T03:29:01;7.63;;;6.28;;
72194;SDS011;60095;50.180;9.032;2022-09-12T03:31:28;5.57;;;5.07;;
72194;SDS011;60095;50.180;9.032;2022-09-12T03:33:55;6.82;;;5.53;;
72194;SDS011;60095;50.180;9.032;2022-09-12T03:36:23;7.10;;;5.07;;
72194;SDS011;60095;50.180;9.032;2022-09-12T03:38:49;5.82;;;4.75;;
72194;SDS011;60095;50.180;9.032;2022-09-12T03:41:15;5.90;;;5.30;;
72194;SDS011;60095;50.180;9.032;2022-09-12T03:43:43;7.78;;;5.90;;
72194;SDS011;60095;50.180;9.032;2022-09-12T03:46:10;7.20;;;5.07;;
72194;SDS011;60095;50.180;9.032;2022-09-12T03:48:36;7.68;;;5.00;;
72194;SDS011;60095;50.180;9.032;2022-09-12T03:51:03;6.57;;;5.28;;
72194;SDS011;60095;50.180;9.032;2022-09-12T03:53:30;6.18;;;5.60;;
72194;SDS011;60095;50.180;9.032;2022-09-12T03:55:56;5.78;;;4.88;;
72194;SDS011;60095;50.180;9.032;2022-09-12T03:58:23;5.70;;;5.00;;
72194;SDS011;60095;50.180;9.032;2022-09-12T04:00:51;4.18;;;3.78;;
72194;SDS011;60095;50.180;9.032;2022-09-12T04:03:17;4.75;;;4.03;;
72194;SDS011;60095;50.180;9.032;2022-09-12T04:05:44;5.90;;;5.40;;
72194;SDS011;60095;50.180;9.032;2022-09-12T04:08:10;5.93;;;5.20;;
72194;SDS011;60095;50.180;9.032;2022-09-12T04:10:37;6.63;;;4.45;;
72194;SDS011;60095;50.180;9.032;2022-09-12T04:13:03;7.47;;;2.95;;
72194;SDS011;60095;50.180;9.032;2022-09-12T04:15:29;4.15;;;3.60;;
72194;SDS011;60095;50.180;9.032;2022-09-12T04:17:57;7.03;;;6.43;;
72194;SDS011;60095;50.180;9.032;2022-09-12T04:20:23;5.18;;;4.70;;
72194;SDS011;60095;50.180;9.032;2022-09-12T04:22:50;7.72;;;5.28;;
72194;SDS011;60095;50.180;9.032;2022-09-12T04:25:16;3.50;;;3.20;;
72194;SDS011;60095;50.180;9.032;2022-09-12T04:27:42;3.97;;;3.67;;
72194;SDS011;60095;50.180;9.032;2022-09-12T04:30:09;6.70;;;5.15;;
72194;SDS011;60095;50.180;9.032;2022-09-12T04:32:35;6.85;;;4.88;;
72194;SDS011;60095;50.180;9.032;2022-09-12T04:35:03;6.57;;;5.95;;
72194;SDS011;60095;50.180;9.032;2022-09-12T04:37:30;4.63;;;4.22;;
72194;SDS011;60095;50.180;9.032;2022-09-12T04:39:56;6.10;;;4.55;;
72194;SDS011;60095;50.180;9.032;2022-09-12T04:42:23;4.57;;;4.18;;
72194;SDS011;60095;50.180;9.032;2022-09-12T04:44:49;4.10;;;3.70;;
72194;SDS011;60095;50.180;9.032;2022-09-12T04:47:16;4.18;;;3.72;;
72194;SDS011;60095;50.180;9.032;2022-09-12T04:49:42;7.13;;;3.85;;
72194;SDS011;60095;50.180;9.032;2022-09-12T04:52:10;5.57;;;5.07;;
72194;SDS011;60095;50.180;9.032;2022-09-12T04:54:36;6.97;;;4.72;;
72194;SDS011;60095;50.180;9.032;2022-09-12T04:57:03;4.65;;;4.25;;
72194;SDS011;60095;50.180;9.032;2022-09-12T04:59:29;4.38;;;3.97;;
72194;SDS011;60095;50.180;9.032;2022-09-12T05:01:56;10.95;;;4.68;;
72194;SDS011;60095;50.180;9.032;2022-09-12T05:04:22;7.07;;;5.55;;
72194;SDS011;60095;50.180;9.032;2022-09-12T05:06:49;6.72;;;5.03;;
72194;SDS011;60095;50.180;9.032;2022-09-12T05:09:16;16.42;;;5.65;;
72194;SDS011;60095;50.180;9.032;2022-09-12T05:11:43;7.00;;;6.28;;
72194;SDS011;60095;50.180;9.032;2022-09-12T05:14:09;7.32;;;5.03;;
72194;SDS011;60095;50.180;9.032;2022-09-12T05:16:36;5.20;;;4.70;;
72194;SDS011;60095;50.180;9.032;2022-09-12T05:19:02;5.30;;;4.80;;
72194;SDS011;60095;50.180;9.032;2022-09-12T05:21:29;5.53;;;5.05;;
72194;SDS011;60095;50.180;9.032;2022-09-12T05:23:55;5.72;;;5.22;;
72194;SDS011;60095;50.180;9.032;2022-09-12T05:26:23;4.75;;;4.32;;
72194;SDS011;60095;50.180;9.032;2022-09-12T05:28:50;8.23;;;5.55;;
72194;SDS011;60095;50.180;9.032;2022-09-12T05:31:18;4.53;;;3.92;;
72194;SDS011;60095;50.180;9.032;2022-09-12T05:33:45;4.97;;;4.47;;
72194;SDS011;60095;50.180;9.032;2022-09-12T05:36:12;8.02;;;7.18;;
72194;SDS011;60095;50.180;9.032;2022-09-12T05:38:39;7.03;;;6.40;;
72194;SDS011;60095;50.180;9.032;2022-09-12T05:41:06;6.03;;;4.70;;
72194;SDS011;60095;50.180;9.032;2022-09-12T05:43:34;3.97;;;3.60;;
72194;SDS011;60095;50.180;9.032;2022-09-12T05:46:02;6.30;;;5.70;;
72194;SDS011;60095;50.180;9.032;2022-09-12T05:48:28;6.25;;;5.45;;
72194;SDS011;60095;50.180;9.032;2022-09-12T05:50:58;5.35;;;4.95;;
72194;SDS011;60095;50.180;9.032;2022-09-12T05:53:25;5.85;;;5.18;;
72194;SDS011;60095;50.180;9.032;2022-09-12T05:56:00;7.10;;;5.82;;
72194;SDS011;60095;50.180;9.032;2022-09-12T05:58:26;5.05;;;4.60;;
72194;SDS011;60095;50.180;9.032;2022-09-12T06:00:54;6.60;;;5.95;;
72194;SDS011;60095;50.180;9.032;2022-09-12T06:03:21;6.40;;;5.45;;
72194;SDS011;60095;50.180;9.032;2022-09-12T06:05:47;7.47;;;6.35;;
72194;SDS011;60095;50.180;9.032;2022-09-12T06:08:14;7.70;;;5.50;;
72194;SDS011;60095;50.180;9.032;2022-09-12T06:10:40;5.32;;;4.82;;
72194;SDS011;60095;50.180;9.032;2022-09-12T06:13:07;6.80;;;5.88;;
72194;SDS011;60095;50.180;9.032;2022-09-12T06:15:33;6.38;;;5.63;;
72194;SDS011;60095;50.180;9.032;2022-09-12T06:18:01;4.93;;;4.45;;
72194;SDS011;60095;50.180;9.032;2022-09-12T06:20:27;8.38;;;5.25;;
72194;SDS011;60095;50.180;9.032;2022-09-12T06:22:54;6.72;;;5.68;;
72194;SDS011;60095;50.180;9.032;2022-09-12T06:25:20;15.98;;;4.50;;
72194;SDS011;60095;50.180;9.032;2022-09-12T06:27:47;4.88;;;4.38;;
72194;SDS011;60095;50.180;9.032;2022-09-12T06:30:13;6.05;;;5.55;;
72194;SDS011;60095;50.180;9.032;2022-09-12T06:32:39;5.55;;;5.05;;
72194;SDS011;60095;50.180;9.032;2022-09-12T06:35:07;5.47;;;4.88;;
72194;SDS011;60095;50.180;9.032;2022-09-12T06:37:34;16.80;;;5.50;;
72194;SDS011;60095;50.180;9.032;2022-09-12T06:40:00;9.45;;;5.85;;
72194;SDS011;60095;50.180;9.032;2022-09-12T06:42:27;7.28;;;5.70;;
72194;SDS011;60095;50.180;9.032;2022-09-12T06:44:53;5.93;;;4.85;;
72194;SDS011;60095;50.180;9.032;2022-09-12T06:47:19;4.78;;;4.07;;
72194;SDS011;60095;50.180;9.032;2022-09-12T06:49:46;4.78;;;4.10;;
72194;SDS011;60095;50.180;9.032;2022-09-12T06:52:14;5.13;;;4.68;;
72194;SDS011;60095;50.180;9.032;2022-09-12T06:54:40;5.60;;;4.65;;
72194;SDS011;60095;50.180;9.032;2022-09-12T06:57:06;5.28;;;4.53;;
72194;SDS011;60095;50.180;9.032;2022-09-12T06:59:32;5.32;;;4.63;;
72194;SDS011;60095;50.180;9.032;2022-09-12T07:01:59;5.13;;;4.63;;
72194;SDS011;60095;50.180;9.032;2022-09-12T07:04:25;5.30;;;4.80;;
72194;SDS011;60095;50.180;9.032;2022-09-12T07:06:52;4.72;;;3.53;;
72194;SDS011;60095;50.180;9.032;2022-09-12T07:09:19;4.82;;;4.30;;
72194;SDS011;60095;50.180;9.032;2022-09-12T07:11:46;3.95;;;3.42;;
72194;SDS011;60095;50.180;9.032;2022-09-12T07:14:12;3.63;;;2.80;;
72194;SDS011;60095;50.180;9.032;2022-09-12T07:16:39;7.38;;;4.45;;
72194;SDS011;60095;50.180;9.032;2022-09-12T07:19:05;6.22;;;5.32;;
72194;SDS011;60095;50.180;9.032;2022-09-12T07:21:32;4.95;;;4.45;;
72194;SDS011;60095;50.180;9.032;2022-09-12T07:24:00;16.83;;;5.50;;
72194;SDS011;60095;50.180;9.032;2022-09-12T07:26:28;4.47;;;4.07;;
72194;SDS011;60095;50.180;9.032;2022-09-12T07:28:55;3.88;;;2.78;;
72194;SDS011;60095;50.180;9.032;2022-09-12T07:31:22;5.97;;;3.72;;
72194;SDS011;60095;50.180;9.032;2022-09-12T07:33:49;3.10;;;2.80;;
72194;SDS011;60095;50.180;9.032;2022-09-12T07:36:16;4.47;;;2.47;;
72194;SDS011;60095;50.180;9.032;2022-09-12T07:38:43;6.20;;;4.45;;
72194;SDS011;60095;50.180;9.032;2022-09-12T07:41:10;3.47;;;3.13;;
72194;SDS011;60095;50.180;9.032;2022-09-12T07:43:38;3.55;;;3.10;;
72194;SDS011;60095;50.180;9.032;2022-09-12T07:46:04;2.42;;;2.22;;
72194;SDS011;60095;50.180;9.032;2022-09-12T07:48:31;4.10;;;2.95;;
72194;SDS011;60095;50.180;9.032;2022-09-12T07:50:58;2.67;;;2.47;;
72194;SDS011;60095;50.180;9.032;2022-09-12T07:53:25;3.20;;;2.83;;
72194;SDS011;60095;50.180;9.032;2022-09-12T07:55:52;2.75;;;2.53;;
72194;SDS011;60095;50.180;9.032;2022-09-12T07:58:19;6.15;;;2.38;;
72194;SDS011;60095;50.180;9.032;2022-09-12T08:00:47;7.28;;;2.83;;
72194;SDS011;60095;50.180;9.032;2022-09-12T08:03:13;2.35;;;2.00;;
72194;SDS011;60095;50.180;9.032;2022-09-12T08:05:40;3.25;;;2.92;;
72194;SDS011;60095;50.180;9.032;2022-09-12T08:08:06;4.32;;;2.97;;
72194;SDS011;60095;50.180;9.032;2022-09-12T08:10:33;3.90;;;3.28;;
72194;SDS011;60095;50.180;9.032;2022-09-12T08:12:59;2.90;;;2.17;;
72194;SDS011;60095;50.180;9.032;2022-09-12T08:15:27;5.93;;;2.30;;
72194;SDS011;60095;50.180;9.032;2022-09-12T08:17:54;2.78;;;2.58;;
72194;SDS011;60095;50.180;9.032;2022-09-12T08:20:20;4.20;;;2.15;;
72194;SDS011;60095;50.180;9.032;2022-09-12T08:22:47;3.22;;;2.92;;
72194;SDS011;60095;50.180;9.032;2022-09-12T08:25:13;2.17;;;1.75;;
72194;SDS011;60095;50.180;9.032;2022-09-12T08:27:40;2.55;;;2.35;;
72194;SDS011;60095;50.180;9.032;2022-09-12T08:30:07;4.72;;;2.60;;
72194;SDS011;60095;50.180;9.032;2022-09-12T08:32:34;2.55;;;1.95;;
72194;SDS011;60095;50.180;9.032;2022-09-12T08:35:02;2.25;;;2.03;;
72194;SDS011;60095;50.180;9.032;2022-09-12T08:37:28;2.65;;;1.92;;
72194;SDS011;60095;50.180;9.032;2022-09-12T08:39:55;2.25;;;2.05;;
72194;SDS011;60095;50.180;9.032;2022-09-12T08:42:23;2.15;;;1.83;;
72194;SDS011;60095;50.180;9.032;2022-09-12T08:44:58;3.35;;;1.98;;
72194;SDS011;60095;50.180;9.032;2022-09-12T08:47:31;2.70;;;2.33;;
72194;SDS011;60095;50.180;9.032;2022-09-12T08:49:59;3.40;;;2.45;;
72194;SDS011;60095;50.180;9.032;2022-09-12T08:52:29;7.90;;;3.22;;
72194;SDS011;60095;50.180;9.032;2022-09-12T08:54:58;16.17;;;2.60;;
72194;SDS011;60095;50.180;9.032;2022-09-12T08:57:25;2.80;;;2.08;;
72194;SDS011;60095;50.180;9.032;2022-09-12T08:59:52;2.85;;;2.38;;
72194;SDS011;60095;50.180;9.032;2022-09-12T09:02:23;15.77;;;2.85;;
72194;SDS011;60095;50.180;9.032;2022-09-12T09:04:52;2.55;;;2.13;;
72194;SDS011;60095;50.180;9.032;2022-09-12T09:07:27;3.40;;;2.95;;
72194;SDS011;60095;50.180;9.032;2022-09-12T09:10:03;2.10;;;1.90;;
72194;SDS011;60095;50.180;9.032;2022-09-12T09:12:34;3.10;;;2.55;;
72194;SDS011;60095;50.180;9.032;2022-09-12T09:15:16;3.00;;;2.35;;
72194;SDS011;60095;50.180;9.032;2022-09-12T09:17:48;5.47;;;3.20;;
72194;SDS011;60095;50.180;9.032;2022-09-12T09:20:18;2.55;;;2.35;;
72194;SDS011;60095;50.180;9.032;2022-09-12T09:22:48;2.03;;;1.83;;
72194;SDS011;60095;50.180;9.032;2022-09-12T09:25:18;2.97;;;2.67;;
72194;SDS011;60095;50.180;9.032;2022-09-12T09:27:47;2.67;;;1.80;;
72194;SDS011;60095;50.180;9.032;2022-09-12T09:30:17;2.80;;;2.00;;
72194;SDS011;60095;50.180;9.032;2022-09-12T09:32:46;2.50;;;2.08;;
72194;SDS011;60095;50.180;9.032;2022-09-12T09:35:14;7.55;;;3.65;;
72194;SDS011;60095;50.180;9.032;2022-09-12T09:37:42;7.03;;;3.45;;
72194;SDS011;60095;50.180;9.032;2022-09-12T09:40:13;5.32;;;3.50;;
72194;SDS011;60095;50.180;9.032;2022-09-12T09:42:43;3.83;;;2.70;;
72194;SDS011;60095;50.180;9.032;2022-09-12T09:45:12;3.00;;;2.70;;
72194;SDS011;60095;50.180;9.032;2022-09-12T09:47:40;4.75;;;3.17;;
72194;SDS011;60095;50.180;9.032;2022-09-12T09:50:08;5.90;;;3.33;;
72194;SDS011;60095;50.180;9.032;2022-09-12T09:52:38;3.90;;;2.17;;
72194;SDS011;60095;50.180;9.032;2022-09-12T09:55:05;3.40;;;3.10;;
72194;SDS011;60095;50.180;9.032;2022-09-12T09:57:38;3.45;;;2.35;;
72194;SDS011;60095;50.180;9.032;2022-09-12T10:03:16;2.25;;;2.00;;
72194;SDS011;60095;50.180;9.032;2022-09-12T10:05:45;2.88;;;2.58;;
72194;SDS011;60095;50.180;9.032;2022-09-12T10:08:18;2.72;;;2.53;;
72194;SDS011;60095;50.180;9.032;2022-09-12T10:10:51;3.03;;;2.45;;
72194;SDS011;60095;50.180;9.032;2022-09-12T10:13:21;4.70;;;2.97;;
72194;SDS011;60095;50.180;9.032;2022-09-12T10:15:54;2.85;;;2.15;;
72194;SDS011;60095;50.180;9.032;2022-09-12T10:18:30;9.40;;;3.33;;
72194;SDS011;60095;50.180;9.032;2022-09-12T10:20:58;4.43;;;2.85;;
72194;SDS011;60095;50.180;9.032;2022-09-12T10:23:28;3.55;;;3.17;;
72194;SDS011;60095;50.180;9.032;2022-09-12T10:25:56;4.45;;;2.65;;
72194;SDS011;60095;50.180;9.032;2022-09-12T10:28:34;3.70;;;2.45;;
72194;SDS011;60095;50.180;9.032;2022-09-12T10:31:03;4.72;;;3.08;;
72194;SDS011;60095;50.180;9.032;2022-09-12T10:33:32;2.67;;;2.33;;
72194;SDS011;60095;50.180;9.032;2022-09-12T10:36:01;3.13;;;2.83;;
72194;SDS011;60095;50.180;9.032;2022-09-12T10:38:30;2.67;;;2.45;;
72194;SDS011;60095;50.180;9.032;2022-09-12T10:40:58;8.50;;;2.53;;
72194;SDS011;60095;50.180;9.032;2022-09-12T10:43:26;3.67;;;2.22;;
72194;SDS011;60095;50.180;9.032;2022-09-12T10:45:55;2.60;;;2.33;;
72194;SDS011;60095;50.180;9.032;2022-09-12T10:48:23;3.00;;;2.25;;
72194;SDS011;60095;50.180;9.032;2022-09-12T10:50:51;4.45;;;2.50;;
72194;SDS011;60095;50.180;9.032;2022-09-12T10:53:19;3.50;;;2.50;;
72194;SDS011;60095;50.180;9.032;2022-09-12T10:55:54;3.95;;;2.88;;
72194;SDS011;60095;50.180;9.032;2022-09-12T10:58:27;4.40;;;3.83;;
72194;SDS011;60095;50.180;9.032;2022-09-12T11:00:57;2.72;;;2.35;;
72194;SDS011;60095;50.180;9.032;2022-09-12T11:03:29;2.42;;;1.92;;
72194;SDS011;60095;50.180;9.032;2022-09-12T11:06:03;2.63;;;2.42;;
72194;SDS011;60095;50.180;9.032;2022-09-12T11:08:37;7.18;;;3.85;;
72194;SDS011;60095;50.180;9.032;2022-09-12T11:11:06;2.13;;;1.80;;
72194;SDS011;60095;50.180;9.032;2022-09-12T11:13:45;3.80;;;2.15;;
72194;SDS011;60095;50.180;9.032;2022-09-12T11:16:16;3.67;;;2.22;;
72194;SDS011;60095;50.180;9.032;2022-09-12T11:18:53;2.88;;;2.17;;
72194;SDS011;60095;50.180;9.032;2022-09-12T11:21:31;3.15;;;2.28;;
72194;SDS011;60095;50.180;9.032;2022-09-12T11:24:06;2.30;;;2.10;;
72194;SDS011;60095;50.180;9.032;2022-09-12T11:26:42;2.85;;;2.08;;
72194;SDS011;60095;50.180;9.032;2022-09-12T11:29:11;3.33;;;2.25;;
72194;SDS011;60095;50.180;9.032;2022-09-12T11:31:45;8.25;;;2.30;;
72194;SDS011;60095;50.180;9.032;2022-09-12T11:34:15;2.33;;;1.92;;
72194;SDS011;60095;50.180;9.032;2022-09-12T11:36:46;2.97;;;2.75;;
72194;SDS011;60095;50.180;9.032;2022-09-12T11:39:18;2.40;;;1.70;;
72194;SDS011;60095;50.180;9.032;2022-09-12T11:41:48;3.38;;;1.80;;
72194;SDS011;60095;50.180;9.032;2022-09-12T11:44:17;10.15;;;2.40;;
72194;SDS011;60095;50.180;9.032;2022-09-12T11:46:46;3.25;;;2.55;;
72194;SDS011;60095;50.180;9.032;2022-09-12T11:49:17;3.67;;;1.73;;
72194;SDS011;60095;50.180;9.032;2022-09-12T11:51:48;7.00;;;1.83;;
72194;SDS011;60095;50.180;9.032;2022-09-12T11:54:18;1.55;;;1.35;;
72194;SDS011;60095;50.180;9.032;2022-09-12T11:56:45;2.28;;;1.58;;
72194;SDS011;60095;50.180;9.032;2022-09-12T11:59:14;4.00;;;2.53;;
72194;SDS011;60095;50.180;9.032;2022-09-12T12:01:42;2.30;;;2.08;;
72194;SDS011;60095;50.180;9.032;2022-09-12T12:04:11;2.28;;;1.70;;
72194;SDS011;60095;50.180;9.032;2022-09-12T12:06:44;2.17;;;1.75;;
72194;SDS011;60095;50.180;9.032;2022-09-12T12:09:13;1.58;;;1.42;;
72194;SDS011;60095;50.180;9.032;2022-09-12T12:11:41;1.88;;;1.60;;
72194;SDS011;60095;50.180;9.032;2022-09-12T12:14:11;3.13;;;2.13;;
72194;SDS011;60095;50.180;9.032;2022-09-12T12:16:40;3.58;;;1.70;;
72194;SDS011;60095;50.180;9.032;2022-09-12T12:19:19;4.47;;;2.15;;
72194;SDS011;60095;50.180;9.032;2022-09-12T12:21:49;2.97;;;1.80;;
72194;SDS011;60095;50.180;9.032;2022-09-12T12:24:18;3.38;;;2.17;;
72194;SDS011;60095;50.180;9.032;2022-09-12T12:26:58;3.17;;;2.15;;
72194;SDS011;60095;50.180;9.032;2022-09-12T12:29:36;1.98;;;1.75;;
72194;SDS011;60095;50.180;9.032;2022-09-12T12:32:17;5.60;;;2.08;;
72194;SDS011;60095;50.180;9.032;2022-09-12T12:34:44;4.00;;;1.35;;
72194;SDS011;60095;50.180;9.032;2022-09-12T12:40:19;1.30;;;1.20;;
72194;SDS011;60095;50.180;9.032;2022-09-12T12:42:56;1.23;;;0.98;;
72194;SDS011;60095;50.180;9.032;2022-09-12T12:48:07;6.30;;;1.35;;
72194;SDS011;60095;50.180;9.032;2022-09-12T12:50:35;2.83;;;1.85;;
72194;SDS011;60095;50.180;9.032;2022-09-12T12:53:01;1.63;;;1.23;;
72194;SDS011;60095;50.180;9.032;2022-09-12T12:55:31;2.58;;;1.90;;
72194;SDS011;60095;50.180;9.032;2022-09-12T12:57:59;2.88;;;2.08;;
72194;SDS011;60095;50.180;9.032;2022-09-12T13:00:27;5.18;;;2.05;;
72194;SDS011;60095;50.180;9.032;2022-09-12T13:02:56;4.13;;;2.28;;
72194;SDS011;60095;50.180;9.032;2022-09-12T13:05:24;2.42;;;1.80;;
72194;SDS011;60095;50.180;9.032;2022-09-12T13:07:52;2.75;;;1.52;;
72194;SDS011;60095;50.180;9.032;2022-09-12T13:10:20;1.75;;;1.42;;
72194;SDS011;60095;50.180;9.032;2022-09-12T13:12:49;6.18;;;1.85;;
72194;SDS011;60095;50.180;9.032;2022-09-12T13:18:09;1.77;;;1.42;;
72194;SDS011;60095;50.180;9.032;2022-09-12T13:20:43;5.38;;;2.47;;
72194;SDS011;60095;50.180;9.032;2022-09-12T13:23:20;1.55;;;1.45;;
72194;SDS011;60095;50.180;9.032;2022-09-12T13:25:50;2.40;;;2.20;;
72194;SDS011;60095;50.180;9.032;2022-09-12T13:28:18;1.88;;;1.38;;
72194;SDS011;60095;50.180;9.032;2022-09-12T13:30:45;2.53;;;1.95;;
72194;SDS011;60095;50.180;9.032;2022-09-12T13:33:18;7.20;;;2.42;;
72194;SDS011;60095;50.180;9.032;2022-09-12T13:35:48;2.42;;;1.70;;
72194;SDS011;60095;50.180;9.032;2022-09-12T13:38:19;1.98;;;1.30;;
72194;SDS011;60095;50.180;9.032;2022-09-12T13:40:54;1.52;;;1.20;;
72194;SDS011;60095;50.180;9.032;2022-09-12T13:43:28;2.45;;;1.63;;
72194;SDS011;60095;50.180;9.032;2022-09-12T13:46:00;1.65;;;1.40;;
72194;SDS011;60095;50.180;9.032;2022-09-12T13:48:26;6.22;;;2.08;;
72194;SDS011;60095;50.180;9.032;2022-09-12T13:50:53;2.58;;;1.88;;
72194;SDS011;60095;50.180;9.032;2022-09-12T13:53:21;4.22;;;2.30;;
72194;SDS011;60095;50.180;9.032;2022-09-12T13:55:49;2.95;;;1.58;;
72194;SDS011;60095;50.180;9.032;2022-09-12T13:58:18;3.03;;;1.77;;
72194;SDS011;60095;50.180;9.032;2022-09-12T14:00:58;1.70;;;1.60;;
72194;SDS011;60095;50.180;9.032;2022-09-12T14:03:25;2.47;;;1.83;;
72194;SDS011;60095;50.180;9.032;2022-09-12T14:06:09;2.45;;;1.33;;
72194;SDS011;60095;50.180;9.032;2022-09-12T14:08:37;2.05;;;1.73;;
72194;SDS011;60095;50.180;9.032;2022-09-12T14:11:06;1.60;;;1.23;;
72194;SDS011;60095;50.180;9.032;2022-09-12T14:13:33;1.85;;;1.63;;
72194;SDS011;60095;50.180;9.032;2022-09-12T14:16:01;2.25;;;1.60;;
72194;SDS011;60095;50.180;9.032;2022-09-12T14:18:28;1.77;;;1.20;;
72194;SDS011;60095;50.180;9.032;2022-09-12T14:20:56;1.27;;;1.10;;
72194;SDS011;60095;50.180;9.032;2022-09-12T14:23:26;1.50;;;1.05;;
72194;SDS011;60095;50.180;9.032;2022-09-12T14:25:53;3.10;;;1.60;;
72194;SDS011;60095;50.180;9.032;2022-09-12T14:28:20;1.55;;;1.45;;
72194;SDS011;60095;50.180;9.032;2022-09-12T14:30:56;2.20;;;1.70;;
72194;SDS011;60095;50.180;9.032;2022-09-12T14:33:24;1.65;;;1.33;;
72194;SDS011;60095;50.180;9.032;2022-09-12T14:35:51;2.05;;;1.58;;
72194;SDS011;60095;50.180;9.032;2022-09-12T14:38:20;2.25;;;1.70;;
72194;SDS011;60095;50.180;9.032;2022-09-12T14:40:48;1.13;;;0.85;;
72194;SDS011;60095;50.180;9.032;2022-09-12T14:43:17;1.85;;;1.35;;
72194;SDS011;60095;50.180;9.032;2022-09-12T14:45:48;1.45;;;1.35;;
72194;SDS011;60095;50.180;9.032;2022-09-12T14:48:17;2.60;;;1.63;;
72194;SDS011;60095;50.180;9.032;2022-09-12T14:50:45;1.33;;;1.05;;
72194;SDS011;60095;50.180;9.032;2022-09-12T14:53:19;5.28;;;1.42;;
72194;SDS011;60095;50.180;9.032;2022-09-12T14:55:48;1.48;;;1.05;;
72194;SDS011;60095;50.180;9.032;2022-09-12T14:58:21;2.97;;;1.85;;
72194;SDS011;60095;50.180;9.032;2022-09-12T15:00:53;1.75;;;1.38;;
72194;SDS011;60095;50.180;9.032;2022-09-12T15:03:23;3.88;;;1.63;;
72194;SDS011;60095;50.180;9.032;2022-09-12T15:05:51;2.85;;;1.00;;
72194;SDS011;60095;50.180;9.032;2022-09-12T15:08:18;1.73;;;1.33;;
72194;SDS011;60095;50.180;9.032;2022-09-12T15:10:44;1.50;;;0.95;;
72194;SDS011;60095;50.180;9.032;2022-09-12T15:13:12;1.17;;;0.85;;